createdAt,value
2019-03-04T00:00:58.999Z,1.70
2019-03-04T00:03:28.289Z,1.50
2019-03-04T00:05:57.015Z,1.30
2019-03-04T00:08:25.959Z,1.30
2019-03-04T00:10:54.941Z,1.33
2019-03-04T00:13:23.812Z,1.40
2019-03-04T00:15:52.850Z,1.30
2019-03-04T00:18:21.527Z,1.50
2019-03-04T00:20:50.459Z,1.00
2019-03-04T00:23:19.468Z,1.30
2019-03-04T00:25:48.207Z,1.50
2019-03-04T00:28:17.085Z,1.50
2019-03-04T00:30:45.877Z,1.30
2019-03-04T00:33:14.308Z,1.20
2019-03-04T00:35:42.831Z,1.20
2019-03-04T00:38:11.955Z,1.13
2019-03-04T00:40:40.990Z,1.30
2019-03-04T00:43:09.859Z,1.23
2019-03-04T00:45:38.554Z,1.20
2019-03-04T00:48:07.786Z,1.50
2019-03-04T00:50:36.595Z,1.20
2019-03-04T00:53:05.743Z,1.10
2019-03-04T00:55:34.442Z,1.27
2019-03-04T00:58:03.248Z,1.70
2019-03-04T01:00:32.045Z,1.70
2019-03-04T01:03:01.074Z,1.20
2019-03-04T01:05:30.166Z,1.23
2019-03-04T01:07:59.325Z,1.27
2019-03-04T01:10:28.551Z,1.37
2019-03-04T01:12:57.599Z,1.00
2019-03-04T01:15:26.258Z,1.10
2019-03-04T01:17:55.211Z,1.03
2019-03-04T01:20:24.287Z,1.10
2019-03-04T01:22:52.981Z,1.23
2019-03-04T01:25:22.337Z,1.00
2019-03-04T01:27:50.812Z,1.00
2019-03-04T01:30:20.211Z,0.87
2019-03-04T01:32:49.238Z,2.30
2019-03-04T01:35:18.212Z,1.00
2019-03-04T01:37:50.998Z,1.00
2019-03-04T01:40:20.087Z,0.90
2019-03-04T01:42:48.795Z,1.50
2019-03-04T01:45:18.116Z,0.90
2019-03-04T01:47:46.786Z,1.30
2019-03-04T01:50:16.377Z,0.90
2019-03-04T01:52:45.712Z,1.10
2019-03-04T01:55:14.934Z,0.83
2019-03-04T01:57:43.713Z,0.80
2019-03-04T02:00:13.781Z,1.17
2019-03-04T02:02:42.567Z,0.80
2019-03-04T02:05:11.340Z,0.90
2019-03-04T02:07:40.377Z,1.17
2019-03-04T02:10:10.287Z,0.80
2019-03-04T02:12:39.246Z,0.80
2019-03-04T02:15:08.442Z,0.97
2019-03-04T02:17:36.819Z,1.17
2019-03-04T02:20:06.381Z,0.90
2019-03-04T02:22:34.739Z,1.13
2019-03-04T02:25:03.376Z,0.90
2019-03-04T02:27:32.411Z,1.00
2019-03-04T02:30:01.291Z,0.90
2019-03-04T02:32:30.282Z,1.50
2019-03-04T02:34:58.970Z,1.10
2019-03-04T02:37:28.135Z,1.17
2019-03-04T02:39:56.791Z,0.93
2019-03-04T02:42:25.494Z,0.90
2019-03-04T02:44:54.788Z,1.10
2019-03-04T02:47:23.302Z,0.90
2019-03-04T02:49:51.903Z,1.03
2019-03-04T02:52:20.381Z,1.00
2019-03-04T02:54:48.719Z,1.03
2019-03-04T02:57:17.057Z,1.20
2019-03-04T02:59:45.871Z,1.20
2019-03-04T03:02:14.691Z,1.20
2019-03-04T03:04:43.741Z,1.10
2019-03-04T03:07:12.436Z,1.10
2019-03-04T03:09:40.807Z,0.90
2019-03-04T03:12:09.139Z,1.10
2019-03-04T03:14:37.785Z,0.80
2019-03-04T03:17:06.731Z,0.90
2019-03-04T03:19:35.082Z,1.00
2019-03-04T03:22:03.412Z,1.20
2019-03-04T03:24:31.740Z,1.00
2019-03-04T03:27:00.283Z,1.00
2019-03-04T03:29:28.627Z,1.40
2019-03-04T03:31:57.423Z,1.10
2019-03-04T03:34:26.585Z,1.30
2019-03-04T03:36:55.612Z,1.00
2019-03-04T03:39:24.651Z,1.07
2019-03-04T03:41:53.312Z,1.13
2019-03-04T03:44:22.189Z,1.33
2019-03-04T03:46:50.937Z,1.30
2019-03-04T03:49:19.635Z,1.40
2019-03-04T03:51:48.445Z,1.10
2019-03-04T03:54:17.453Z,1.10
2019-03-04T03:56:45.915Z,1.30
2019-03-04T03:59:14.746Z,1.50
2019-03-04T04:01:43.163Z,1.30
2019-03-04T04:04:11.507Z,1.40
2019-03-04T04:06:40.309Z,1.53
2019-03-04T04:09:08.767Z,1.60
2019-03-04T04:11:37.088Z,1.27
2019-03-04T04:14:05.547Z,1.57
2019-03-04T04:16:34.239Z,1.47
2019-03-04T04:19:03.043Z,1.50
2019-03-04T04:21:31.695Z,1.37
2019-03-04T04:24:00.676Z,1.60
2019-03-04T04:26:29.388Z,1.80
2019-03-04T04:29:08.263Z,1.73
2019-03-04T04:31:36.594Z,2.07
2019-03-04T04:34:04.964Z,1.80
2019-03-04T04:36:33.309Z,2.17
2019-03-04T04:39:01.706Z,1.90
2019-03-04T04:41:30.088Z,2.40
2019-03-04T04:43:58.422Z,1.57
2019-03-04T04:46:44.678Z,1.77
2019-03-04T04:49:12.994Z,1.90
2019-03-04T04:51:41.334Z,2.47
2019-03-04T04:54:09.676Z,2.53
2019-03-04T04:56:38.024Z,1.90
2019-03-04T04:59:06.756Z,1.93
2019-03-04T05:01:35.420Z,2.40
2019-03-04T05:04:04.278Z,2.20
2019-03-04T05:06:33.083Z,1.87
2019-03-04T05:09:02.294Z,2.00
2019-03-04T05:11:31.006Z,2.03
2019-03-04T05:13:59.665Z,1.80
2019-03-04T05:16:28.472Z,2.53
2019-03-04T05:18:56.831Z,2.10
2019-03-04T05:21:25.570Z,1.97
2019-03-04T05:23:54.468Z,1.90
2019-03-04T05:26:23.223Z,1.50
2019-03-04T05:28:51.717Z,2.10
2019-03-04T05:31:20.414Z,2.13
2019-03-04T05:33:49.075Z,2.10
2019-03-04T05:36:17.711Z,2.20
2019-03-04T05:38:46.354Z,2.20
2019-03-04T05:41:15.249Z,2.37
2019-03-04T05:43:44.000Z,2.17
2019-03-04T05:46:12.526Z,2.07
2019-03-04T05:48:41.843Z,2.03
2019-03-04T05:51:10.506Z,1.90
2019-03-04T05:53:39.520Z,2.00
2019-03-04T05:56:08.178Z,1.97
2019-03-04T05:58:36.823Z,1.80
2019-03-04T06:01:18.857Z,2.10
2019-03-04T06:03:47.802Z,1.87
2019-03-04T06:06:18.226Z,5.20
2019-03-04T06:08:47.078Z,14.50
2019-03-04T06:11:15.417Z,7.33
2019-03-04T06:13:43.773Z,2.47
2019-03-04T06:16:12.279Z,2.03
2019-03-04T06:18:40.694Z,2.20
2019-03-04T06:21:09.157Z,2.20
2019-03-04T06:23:37.558Z,1.80
2019-03-04T06:26:05.940Z,2.30
2019-03-04T06:28:34.305Z,1.90
2019-03-04T06:31:02.797Z,2.20
2019-03-04T06:33:31.174Z,2.43
2019-03-04T06:35:59.538Z,2.00
2019-03-04T06:38:27.921Z,2.10
2019-03-04T06:40:56.419Z,2.27
2019-03-04T06:43:24.814Z,2.13
2019-03-04T06:45:53.123Z,2.23
2019-03-04T06:48:21.500Z,2.13
2019-03-04T06:50:53.955Z,2.33
2019-03-04T06:53:27.368Z,2.00
2019-03-04T06:56:03.824Z,999.90
2019-03-04T06:58:33.160Z,999.90
2019-03-04T07:01:06.503Z,890.17
2019-03-04T07:03:39.638Z,570.10
2019-03-04T07:06:08.002Z,222.07
2019-03-04T07:08:55.407Z,45.27
2019-03-04T07:11:24.060Z,79.63
2019-03-04T07:13:52.482Z,23.27
2019-03-04T07:16:20.856Z,5.40
2019-03-04T07:18:49.304Z,2.53
2019-03-04T07:21:17.655Z,2.23
2019-03-04T07:23:46.017Z,1.70
2019-03-04T07:26:14.342Z,1.80
2019-03-04T07:28:42.654Z,1.00
2019-03-04T07:31:10.982Z,2.77
2019-03-04T07:33:39.318Z,7.13
2019-03-04T07:36:08.152Z,1.23
2019-03-04T07:38:55.710Z,1.00
2019-03-04T07:41:24.060Z,0.60
2019-03-04T07:43:52.510Z,1.63
2019-03-04T07:46:20.950Z,0.63
2019-03-04T07:48:49.658Z,0.87
2019-03-04T07:51:18.232Z,0.80
2019-03-04T07:53:46.995Z,0.40
2019-03-04T07:56:15.643Z,0.60
2019-03-04T07:58:44.015Z,0.50
2019-03-04T08:01:12.297Z,0.40
2019-03-04T08:03:40.774Z,0.40
2019-03-04T08:06:09.210Z,0.50
2019-03-04T08:08:39.235Z,0.60
2019-03-04T08:11:26.571Z,0.70
2019-03-04T08:13:56.821Z,0.47
2019-03-04T08:16:25.222Z,0.30
2019-03-04T08:18:53.576Z,0.40
2019-03-04T08:21:21.962Z,0.43
2019-03-04T08:23:50.318Z,1.20
2019-03-04T08:26:18.644Z,2.00
2019-03-04T08:28:47.121Z,1.50
2019-03-04T08:31:15.421Z,1.30
2019-03-04T08:33:43.743Z,1.10
2019-03-04T08:36:12.115Z,0.80
2019-03-04T08:38:40.440Z,1.37
2019-03-04T08:41:08.810Z,0.63
2019-03-04T08:43:37.122Z,1.40
2019-03-04T08:46:05.555Z,0.70
2019-03-04T08:48:33.932Z,0.87
2019-03-04T08:51:02.525Z,0.70
2019-03-04T08:53:31.290Z,0.70
2019-03-04T08:55:59.704Z,0.80
2019-03-04T08:58:28.109Z,0.60
2019-03-04T09:00:56.586Z,0.50
2019-03-04T09:03:24.981Z,0.57
2019-03-04T09:05:53.299Z,0.60
2019-03-04T09:08:21.652Z,0.67
2019-03-04T09:10:50.661Z,1.87
2019-03-04T09:13:19.020Z,3.40
2019-03-04T09:15:47.372Z,0.90
2019-03-04T09:18:15.931Z,0.57
2019-03-04T09:20:44.747Z,0.63
2019-03-04T09:23:13.272Z,0.80
2019-03-04T09:26:03.388Z,0.70
2019-03-04T09:28:31.744Z,0.77
2019-03-04T09:31:00.262Z,0.63
2019-03-04T09:33:28.703Z,0.60
2019-03-04T09:35:57.114Z,10.30
2019-03-04T09:38:25.589Z,0.90
2019-03-04T09:40:54.043Z,0.60
2019-03-04T09:43:22.529Z,0.80
2019-03-04T09:45:50.869Z,0.80
2019-03-04T09:48:19.287Z,0.70
2019-03-04T09:50:47.652Z,0.90
2019-03-04T09:53:16.098Z,0.97
2019-03-04T09:55:44.463Z,0.77
2019-03-04T09:58:12.792Z,1.00
2019-03-04T10:00:52.605Z,1.10
2019-03-04T10:03:38.816Z,0.83
2019-03-04T10:06:25.795Z,0.93
2019-03-04T10:09:04.873Z,1.10
2019-03-04T10:11:45.607Z,1.10
2019-03-04T10:14:38.767Z,1.30
2019-03-04T10:17:24.834Z,1.00
2019-03-04T10:20:18.202Z,1.03
2019-03-04T10:23:05.527Z,1.70
2019-03-04T10:25:42.909Z,3.17
2019-03-04T10:28:29.063Z,0.70
2019-03-04T10:31:16.384Z,0.73
2019-03-04T10:34:13.180Z,1.10
2019-03-04T10:37:00.496Z,1.10
2019-03-04T10:39:57.254Z,1.10
2019-03-04T10:42:44.567Z,1.10
2019-03-04T10:45:31.869Z,0.97
2019-03-04T10:48:00.192Z,1.13
2019-03-04T10:50:28.641Z,0.93
2019-03-04T10:52:57.134Z,1.33
2019-03-04T10:55:25.853Z,1.00
2019-03-04T10:57:54.185Z,0.90
2019-03-04T11:00:23.272Z,1.00
2019-03-04T11:02:51.938Z,2.53
2019-03-04T11:05:20.597Z,1.63
2019-03-04T11:07:49.800Z,1.20
2019-03-04T11:10:18.841Z,1.10
2019-03-04T11:12:47.673Z,1.00
2019-03-04T11:15:20.303Z,1.23
2019-03-04T11:17:49.108Z,1.47
2019-03-04T11:20:17.835Z,1.23
2019-03-04T11:22:46.158Z,1.33
2019-03-04T11:25:14.712Z,1.40
2019-03-04T11:27:43.134Z,1.20
2019-03-04T11:30:11.982Z,1.20
2019-03-04T11:32:40.407Z,1.10
2019-03-04T11:35:09.600Z,1.50
2019-03-04T11:37:38.024Z,1.23
2019-03-04T11:40:12.848Z,1.40
2019-03-04T11:42:41.923Z,1.50
2019-03-04T11:45:11.855Z,1.47
2019-03-04T11:47:40.478Z,1.00
2019-03-04T11:50:10.786Z,1.37
2019-03-04T11:52:39.429Z,1.67
2019-03-04T11:55:08.606Z,1.33
2019-03-04T11:57:36.944Z,1.30
2019-03-04T12:00:09.899Z,1.67
2019-03-04T12:02:39.226Z,1.63
2019-03-04T12:05:08.661Z,0.90
2019-03-04T12:07:36.975Z,1.00
2019-03-04T12:10:06.229Z,1.20
2019-03-04T12:12:34.572Z,1.30
2019-03-04T12:15:03.018Z,1.50
2019-03-04T12:17:31.485Z,1.40
2019-03-04T12:20:00.318Z,1.10
2019-03-04T12:22:28.760Z,1.03
2019-03-04T12:24:57.094Z,1.73
2019-03-04T12:27:28.314Z,1.03
2019-03-04T12:29:56.657Z,1.07
2019-03-04T12:32:35.090Z,1.20
2019-03-04T12:35:03.731Z,1.40
2019-03-04T12:37:32.063Z,1.47
2019-03-04T12:40:00.362Z,1.50
2019-03-04T12:42:28.726Z,1.30
2019-03-04T12:44:57.076Z,1.20
2019-03-04T12:47:25.402Z,1.13
2019-03-04T12:49:53.754Z,1.40
2019-03-04T12:52:23.294Z,1.50
2019-03-04T12:54:52.080Z,1.40
2019-03-04T12:57:20.490Z,1.30
2019-03-04T12:59:48.824Z,1.53
2019-03-04T13:02:17.253Z,1.20
2019-03-04T13:04:45.636Z,1.37
2019-03-04T13:07:14.035Z,1.20
2019-03-04T13:09:42.362Z,1.20
2019-03-04T13:12:11.204Z,2.00
2019-03-04T13:14:39.545Z,1.63
2019-03-04T13:17:07.872Z,1.43
2019-03-04T13:19:36.201Z,1.30
2019-03-04T13:22:08.431Z,1.30
2019-03-04T13:24:34.569Z,1.73
2019-03-04T13:27:03.037Z,1.23
2019-03-04T13:29:31.358Z,1.47
2019-03-04T13:31:59.784Z,1.10
2019-03-04T13:34:28.450Z,1.23
2019-03-04T13:36:57.324Z,2.10
2019-03-04T13:39:25.689Z,1.60
2019-03-04T13:41:54.023Z,1.13
2019-03-04T13:44:22.384Z,1.40
2019-03-04T13:46:50.728Z,1.50
2019-03-04T13:49:19.049Z,1.20
2019-03-04T13:51:47.515Z,1.20
2019-03-04T13:54:15.903Z,1.53
2019-03-04T13:56:44.230Z,1.63
2019-03-04T13:59:12.625Z,1.77
2019-03-04T14:01:40.969Z,1.50
2019-03-04T14:04:09.300Z,2.27
2019-03-04T14:06:37.759Z,1.50
2019-03-04T14:09:07.722Z,1.40
2019-03-04T14:11:36.055Z,1.43
2019-03-04T14:14:04.572Z,1.83
2019-03-04T14:16:33.019Z,1.30
2019-03-04T14:19:01.492Z,1.23
2019-03-04T14:21:29.839Z,1.77
2019-03-04T14:23:58.175Z,1.93
2019-03-04T14:26:26.524Z,1.63
2019-03-04T14:28:54.920Z,1.30
2019-03-04T14:31:23.254Z,1.23
2019-03-04T14:33:51.589Z,1.60
2019-03-04T14:36:19.911Z,1.27
2019-03-04T14:38:48.282Z,1.53
2019-03-04T14:41:16.725Z,1.23
2019-03-04T14:43:45.170Z,1.63
2019-03-04T14:46:20.973Z,1.23
2019-03-04T14:48:49.336Z,2.00
2019-03-04T14:51:19.038Z,1.60
2019-03-04T14:53:47.601Z,1.30
2019-03-04T14:56:22.271Z,2.73
2019-03-04T14:58:45.934Z,1.47
2019-03-04T15:01:14.264Z,1.80
2019-03-04T15:03:42.906Z,1.17
2019-03-04T15:06:11.687Z,1.23
2019-03-04T15:08:40.102Z,1.10
2019-03-04T15:11:08.615Z,0.90
2019-03-04T15:13:37.647Z,1.50
2019-03-04T15:16:06.983Z,1.20
2019-03-04T15:18:35.414Z,1.30
2019-03-04T15:21:04.030Z,1.40
2019-03-04T15:23:32.350Z,1.20
2019-03-04T15:26:00.676Z,1.33
2019-03-04T15:28:29.004Z,1.00
2019-03-04T15:30:58.408Z,1.40
2019-03-04T15:33:26.842Z,1.23
2019-03-04T15:35:55.298Z,3.60
2019-03-04T15:38:23.721Z,4.17
2019-03-04T15:40:52.084Z,3.27
2019-03-04T15:43:20.797Z,2.60
2019-03-04T15:45:50.783Z,2.90
2019-03-04T15:48:19.931Z,2.47
2019-03-04T15:50:48.436Z,1.80
2019-03-04T15:53:16.885Z,1.50
2019-03-04T15:55:45.369Z,1.80
2019-03-04T15:58:13.791Z,1.60
2019-03-04T16:00:42.443Z,1.90
2019-03-04T16:03:11.231Z,1.93
2019-03-04T16:05:39.586Z,1.60
2019-03-04T16:08:08.268Z,2.03
2019-03-04T16:10:38.394Z,1.57
2019-03-04T16:13:08.084Z,1.57
2019-03-04T16:15:37.571Z,1.30
2019-03-04T16:18:05.992Z,1.20
2019-03-04T16:20:34.957Z,1.87
2019-03-04T16:23:03.810Z,1.57
2019-03-04T16:25:32.234Z,1.53
2019-03-04T16:28:02.333Z,1.40
2019-03-04T16:30:30.784Z,0.87
2019-03-04T16:32:59.220Z,0.93
2019-03-04T16:35:27.567Z,0.90
2019-03-04T16:37:56.018Z,0.90
2019-03-04T16:40:25.014Z,0.70
2019-03-04T16:42:53.507Z,0.80
2019-03-04T16:45:22.510Z,0.77
2019-03-04T16:47:51.464Z,0.90
2019-03-04T16:50:19.872Z,1.40
2019-03-04T16:52:48.199Z,1.83
2019-03-04T16:55:17.050Z,1.63
2019-03-04T16:57:45.396Z,1.90
2019-03-04T17:00:16.206Z,1.27
2019-03-04T17:02:44.565Z,1.63
2019-03-04T17:05:13.436Z,1.00
2019-03-04T17:07:41.895Z,1.53
2019-03-04T17:10:11.275Z,0.97
2019-03-04T17:12:40.059Z,1.10
2019-03-04T17:15:09.359Z,1.30
2019-03-04T17:17:37.808Z,1.10
2019-03-04T17:20:06.919Z,1.47
2019-03-04T17:22:35.247Z,1.00
2019-03-04T17:25:03.727Z,1.47
2019-03-04T17:27:32.087Z,2.10
2019-03-04T17:30:00.427Z,1.37
2019-03-04T17:32:28.860Z,1.10
2019-03-04T17:34:57.290Z,1.10
2019-03-04T17:37:25.818Z,1.00
2019-03-04T17:39:54.346Z,0.90
2019-03-04T17:42:22.689Z,1.17
2019-03-04T17:44:51.087Z,1.10
2019-03-04T17:47:19.603Z,1.40
2019-03-04T17:49:48.124Z,1.27
2019-03-04T17:52:16.715Z,0.83
2019-03-04T17:54:45.136Z,1.33
2019-03-04T17:57:14.094Z,1.10
2019-03-04T17:59:42.438Z,1.10
2019-03-04T18:02:10.896Z,0.70
2019-03-04T18:04:39.410Z,0.73
2019-03-04T18:07:07.758Z,1.37
2019-03-04T18:09:36.310Z,0.97
2019-03-04T18:12:04.747Z,1.20
2019-03-04T18:14:33.147Z,0.77
2019-03-04T18:17:01.596Z,1.20
2019-03-04T18:19:30.059Z,1.03
2019-03-04T18:21:59.518Z,1.43
2019-03-04T18:24:28.358Z,1.27
2019-03-04T18:27:05.030Z,1.17
2019-03-04T18:29:46.912Z,1.50
2019-03-04T18:32:33.036Z,1.57
2019-03-04T18:35:26.922Z,1.40
2019-03-04T18:38:03.517Z,1.47
2019-03-04T18:40:50.901Z,1.33
2019-03-04T18:43:37.171Z,1.20
2019-03-04T18:46:36.849Z,1.20
2019-03-04T18:49:05.329Z,1.10
2019-03-04T18:51:35.022Z,1.13
2019-03-04T18:54:05.002Z,1.63
2019-03-04T18:56:33.660Z,1.10
2019-03-04T18:59:02.780Z,1.40
2019-03-04T19:01:31.291Z,1.13
2019-03-04T19:03:59.624Z,1.17
2019-03-04T19:06:28.397Z,1.40
2019-03-04T19:08:56.702Z,1.63
2019-03-04T19:11:25.060Z,1.10
2019-03-04T19:13:53.383Z,1.17
2019-03-04T19:16:21.731Z,0.87
2019-03-04T19:18:50.123Z,1.03
2019-03-04T19:21:18.458Z,1.40
2019-03-04T19:23:46.904Z,2.70
2019-03-04T19:26:16.058Z,1.10
2019-03-04T19:28:44.409Z,0.80
2019-03-04T19:31:12.855Z,1.30
2019-03-04T19:33:41.317Z,1.20
2019-03-04T19:36:09.765Z,1.40
2019-03-04T19:38:38.095Z,1.53
2019-03-04T19:41:06.534Z,1.73
2019-03-04T19:43:34.878Z,2.00
2019-03-04T19:46:03.328Z,2.10
2019-03-04T19:48:31.657Z,2.87
2019-03-04T19:51:00.026Z,2.00
2019-03-04T19:53:28.361Z,2.53
2019-03-04T19:55:56.809Z,2.67
2019-03-04T19:58:25.160Z,2.07
2019-03-04T20:00:53.524Z,2.40
2019-03-04T20:03:21.960Z,3.50
2019-03-04T20:05:50.809Z,2.20
2019-03-04T20:08:19.464Z,2.77
2019-03-04T20:10:47.810Z,2.17
2019-03-04T20:13:16.239Z,2.60
2019-03-04T20:15:44.789Z,2.17
2019-03-04T20:18:13.225Z,1.93
2019-03-04T20:20:42.005Z,1.87
2019-03-04T20:23:10.448Z,2.10
2019-03-04T20:25:38.848Z,1.70
2019-03-04T20:28:07.143Z,2.63
2019-03-04T20:30:35.501Z,3.67
2019-03-04T20:33:03.955Z,2.93
2019-03-04T20:35:32.378Z,2.90
2019-03-04T20:38:01.226Z,4.00
2019-03-04T20:40:29.574Z,3.40
2019-03-04T20:42:58.795Z,3.10
2019-03-04T20:45:27.232Z,2.73
2019-03-04T20:47:55.581Z,2.00
2019-03-04T20:50:24.034Z,2.27
2019-03-04T20:52:52.504Z,2.67
2019-03-04T20:55:20.935Z,2.90
2019-03-04T20:57:49.548Z,2.33
2019-03-04T21:00:19.266Z,2.30
2019-03-04T21:02:47.702Z,2.50
2019-03-04T21:05:16.313Z,2.50
2019-03-04T21:07:44.882Z,2.40
2019-03-04T21:10:13.315Z,2.67
2019-03-04T21:12:41.790Z,2.70
2019-03-04T21:15:10.346Z,2.40
2019-03-04T21:17:38.762Z,2.80
2019-03-04T21:20:07.644Z,3.07
2019-03-04T21:22:36.168Z,3.03
2019-03-04T21:25:04.598Z,2.87
2019-03-04T21:27:32.927Z,2.90
2019-03-04T21:30:35.473Z,3.47
2019-03-04T21:33:22.781Z,2.87
2019-03-04T21:36:08.994Z,3.30
2019-03-04T21:38:37.424Z,2.77
2019-03-04T21:41:26.210Z,2.50
2019-03-04T21:43:58.498Z,2.27
2019-03-04T21:46:47.171Z,2.43
2019-03-04T21:49:16.393Z,2.13
2019-03-04T21:52:03.690Z,2.10
2019-03-04T21:54:32.062Z,1.73
2019-03-04T21:57:12.271Z,2.33
2019-03-04T21:59:40.735Z,2.10
2019-03-04T22:02:17.088Z,2.63
2019-03-04T22:04:45.515Z,2.43
2019-03-04T22:07:15.508Z,2.80
2019-03-04T22:09:43.959Z,2.90
2019-03-04T22:12:12.925Z,3.60
2019-03-04T22:14:41.321Z,2.87
2019-03-04T22:17:09.756Z,2.97
2019-03-04T22:19:38.096Z,3.20
2019-03-04T22:22:06.514Z,2.60
2019-03-04T22:24:34.994Z,3.23
2019-03-04T22:27:03.472Z,2.93
2019-03-04T22:29:31.893Z,3.53
2019-03-04T22:32:00.237Z,3.43
2019-03-04T22:34:28.596Z,3.43
2019-03-04T22:36:56.959Z,3.53
2019-03-04T22:39:25.292Z,3.17
2019-03-04T22:41:53.658Z,2.93
2019-03-04T22:44:21.970Z,3.20
2019-03-04T22:46:50.316Z,3.17
2019-03-04T22:49:18.659Z,3.13
2019-03-04T22:51:46.996Z,4.13
2019-03-04T22:54:15.337Z,3.80
2019-03-04T22:56:43.716Z,3.43
2019-03-04T22:59:12.148Z,3.00
2019-03-04T23:01:49.728Z,3.33
2019-03-04T23:04:19.441Z,3.67
2019-03-04T23:06:50.336Z,3.20
2019-03-04T23:09:19.263Z,3.30
2019-03-04T23:11:49.876Z,3.53
2019-03-04T23:14:20.777Z,3.60
2019-03-04T23:16:49.094Z,3.27
2019-03-04T23:19:17.446Z,2.97
2019-03-04T23:21:45.862Z,3.13
2019-03-04T23:24:14.189Z,2.73
2019-03-04T23:26:42.564Z,2.67
2019-03-04T23:29:10.911Z,3.13
2019-03-04T23:31:39.230Z,3.40
2019-03-04T23:34:07.662Z,3.00
2019-03-04T23:36:36.012Z,2.70
2019-03-04T23:39:06.019Z,3.67
2019-03-04T23:41:34.446Z,3.27
2019-03-04T23:44:02.879Z,3.27
2019-03-04T23:46:31.206Z,3.23
2019-03-04T23:48:59.559Z,3.10
2019-03-04T23:51:27.882Z,3.77
2019-03-04T23:53:56.205Z,3.20
2019-03-04T23:56:24.543Z,3.40
2019-03-04T23:58:52.897Z,2.97
